createdAt,value
2022-10-13T00:01:14.712Z,11.64
2022-10-13T00:03:46.229Z,11.64
2022-10-13T00:06:16.719Z,11.63
2022-10-13T00:08:43.713Z,11.62
2022-10-13T00:11:19.661Z,11.59
2022-10-13T00:13:47.289Z,11.60
2022-10-13T00:16:17.142Z,11.61
2022-10-13T00:18:44.347Z,11.60
2022-10-13T00:21:15.692Z,11.62
2022-10-13T00:23:42.973Z,11.60
2022-10-13T00:26:14.216Z,11.62
2022-10-13T00:28:41.846Z,11.62
2022-10-13T00:31:23.256Z,11.61
2022-10-13T00:33:50.296Z,11.63
2022-10-13T00:36:17.625Z,11.64
2022-10-13T00:38:44.417Z,11.63
2022-10-13T00:41:11.540Z,11.65
2022-10-13T00:44:00.198Z,11.60
2022-10-13T00:46:37.223Z,11.62
2022-10-13T00:49:12.685Z,11.63
2022-10-13T00:51:47.423Z,11.62
2022-10-13T00:54:22.590Z,11.62
2022-10-13T00:56:51.008Z,11.55
2022-10-13T00:59:27.334Z,11.59
2022-10-13T01:01:54.460Z,11.63
2022-10-13T01:04:26.276Z,11.62
2022-10-13T01:06:55.007Z,11.62
2022-10-13T01:09:21.831Z,11.61
2022-10-13T01:12:22.673Z,11.58
2022-10-13T01:15:08.316Z,11.59
2022-10-13T01:17:51.270Z,11.58
2022-10-13T01:20:51.233Z,11.55
2022-10-13T01:23:36.289Z,11.59
2022-10-13T01:26:36.430Z,11.55
2022-10-13T01:29:32.244Z,11.58
2022-10-13T01:32:08.463Z,11.57
2022-10-13T01:35:30.154Z,11.54
2022-10-13T01:38:08.343Z,11.55
2022-10-13T01:40:55.778Z,11.52
2022-10-13T01:43:30.340Z,11.53
2022-10-13T01:46:16.042Z,11.50
2022-10-13T01:48:45.697Z,11.52
2022-10-13T01:51:20.367Z,11.50
2022-10-13T01:53:48.533Z,11.50
2022-10-13T01:56:16.162Z,11.51
2022-10-13T01:58:43.421Z,11.50
2022-10-13T02:01:41.653Z,11.47
2022-10-13T02:04:46.137Z,11.47
2022-10-13T02:07:30.167Z,11.48
2022-10-13T02:10:23.044Z,11.48
2022-10-13T02:13:00.404Z,11.47
2022-10-13T02:15:41.358Z,11.48
2022-10-13T02:18:09.961Z,11.50
2022-10-13T02:20:37.602Z,11.49
2022-10-13T02:23:16.236Z,11.48
2022-10-13T02:25:44.428Z,11.48
2022-10-13T02:28:13.864Z,11.48
2022-10-13T02:30:41.500Z,11.50
2022-10-13T02:33:09.695Z,11.49
2022-10-13T02:35:36.557Z,11.47
2022-10-13T02:38:03.609Z,11.45
2022-10-13T02:40:30.692Z,11.45
2022-10-13T02:42:57.597Z,11.42
2022-10-13T02:45:24.416Z,11.38
2022-10-13T02:47:51.562Z,11.32
2022-10-13T02:50:18.533Z,11.25
2022-10-13T02:52:45.689Z,11.16
2022-10-13T02:55:12.525Z,11.07
2022-10-13T02:57:39.364Z,10.97
2022-10-13T03:00:07.497Z,10.88
2022-10-13T03:02:34.548Z,10.82
2022-10-13T03:05:01.721Z,10.75
2022-10-13T03:07:28.545Z,10.67
2022-10-13T03:09:55.385Z,10.63
2022-10-13T03:12:22.567Z,10.54
2022-10-13T03:14:49.653Z,10.47
2022-10-13T03:17:16.468Z,10.41
2022-10-13T03:19:43.357Z,10.32
2022-10-13T03:22:10.328Z,10.26
2022-10-13T03:24:37.456Z,10.24
2022-10-13T03:27:04.503Z,10.22
2022-10-13T03:29:31.304Z,10.20
2022-10-13T03:31:58.219Z,10.22
2022-10-13T03:34:25.067Z,10.25
2022-10-13T03:36:52.213Z,10.26
2022-10-13T03:39:19.025Z,10.28
2022-10-13T03:41:46.331Z,10.30
2022-10-13T03:44:13.850Z,10.34
2022-10-13T03:46:40.780Z,10.33
2022-10-13T03:49:07.589Z,10.37
2022-10-13T03:51:34.401Z,10.38
2022-10-13T03:54:01.213Z,10.40
2022-10-13T03:56:28.815Z,10.41
2022-10-13T03:58:58.919Z,10.40
2022-10-13T04:01:29.335Z,10.41
2022-10-13T04:03:57.957Z,10.40
2022-10-13T04:06:26.533Z,10.39
2022-10-13T04:08:53.974Z,10.39
2022-10-13T04:11:21.980Z,10.38
2022-10-13T04:13:48.936Z,10.39
2022-10-13T04:16:23.688Z,10.39
2022-10-13T04:19:03.575Z,10.38
2022-10-13T04:21:33.755Z,10.36
2022-10-13T04:24:01.863Z,10.38
2022-10-13T04:26:32.472Z,10.38
2022-10-13T04:29:00.485Z,10.38
2022-10-13T04:31:29.657Z,10.38
2022-10-13T04:33:57.807Z,10.39
2022-10-13T04:36:25.441Z,10.41
2022-10-13T04:38:53.825Z,10.41
2022-10-13T04:41:21.852Z,10.40
2022-10-13T04:43:50.991Z,10.40
2022-10-13T04:46:27.635Z,10.37
2022-10-13T04:48:55.816Z,10.41
2022-10-13T04:51:25.983Z,10.38
2022-10-13T04:54:03.057Z,10.33
2022-10-13T04:56:30.075Z,10.31
2022-10-13T04:58:56.931Z,10.29
2022-10-13T05:01:25.342Z,10.28
2022-10-13T05:03:59.138Z,10.28
2022-10-13T05:06:41.619Z,10.29
2022-10-13T05:09:19.240Z,10.30
2022-10-13T05:11:45.981Z,10.31
2022-10-13T05:14:12.722Z,10.31
2022-10-13T05:16:39.708Z,10.33
2022-10-13T05:19:06.532Z,10.34
2022-10-13T05:21:33.363Z,10.36
2022-10-13T05:24:02.471Z,10.36
2022-10-13T05:26:32.135Z,10.38
2022-10-13T05:29:00.950Z,10.38
2022-10-13T05:31:30.556Z,10.40
2022-10-13T05:33:57.672Z,10.40
2022-10-13T05:36:32.445Z,10.40
2022-10-13T05:39:03.794Z,10.43
2022-10-13T05:41:31.556Z,10.43
2022-10-13T05:44:02.852Z,10.46
2022-10-13T05:46:29.681Z,10.45
2022-10-13T05:48:56.800Z,10.44
2022-10-13T05:51:32.904Z,10.44
2022-10-13T05:54:07.069Z,10.43
2022-10-13T05:56:42.524Z,10.41
2022-10-13T05:59:14.375Z,10.41
2022-10-13T06:01:42.895Z,10.42
2022-10-13T06:04:21.117Z,10.41
2022-10-13T06:06:49.333Z,10.42
2022-10-13T06:09:16.619Z,10.38
2022-10-13T06:11:43.501Z,10.38
2022-10-13T06:14:10.272Z,10.37
2022-10-13T06:16:37.235Z,10.34
2022-10-13T06:19:05.578Z,10.35
2022-10-13T06:21:35.226Z,10.36
2022-10-13T06:24:02.879Z,10.34
2022-10-13T06:26:29.713Z,10.35
2022-10-13T06:28:59.682Z,10.33
2022-10-13T06:31:27.124Z,10.34
2022-10-13T06:33:54.472Z,10.34
2022-10-13T06:36:21.908Z,10.34
2022-10-13T06:38:48.737Z,10.33
2022-10-13T06:41:15.597Z,10.36
2022-10-13T06:43:42.585Z,10.38
2022-10-13T06:46:10.035Z,10.36
2022-10-13T06:48:37.139Z,10.34
2022-10-13T06:51:09.966Z,10.36
2022-10-13T06:53:37.452Z,10.38
2022-10-13T06:56:07.076Z,10.38
2022-10-13T06:58:38.165Z,10.41
2022-10-13T07:01:06.664Z,10.38
2022-10-13T07:03:33.965Z,10.38
2022-10-13T07:06:06.235Z,10.38
2022-10-13T07:08:34.722Z,10.38
2022-10-13T07:11:16.261Z,10.39
2022-10-13T07:13:46.620Z,10.42
2022-10-13T07:16:17.026Z,10.46
2022-10-13T07:18:44.285Z,10.49
2022-10-13T07:21:11.087Z,10.49
2022-10-13T07:23:38.093Z,10.49
2022-10-13T07:26:14.678Z,10.51
2022-10-13T07:28:43.332Z,10.54
2022-10-13T07:31:20.145Z,10.59
2022-10-13T07:33:50.044Z,10.62
2022-10-13T07:36:17.306Z,10.64
2022-10-13T07:38:44.546Z,10.67
2022-10-13T07:41:12.768Z,10.70
2022-10-13T07:43:39.710Z,10.77
2022-10-13T07:46:07.753Z,10.90
2022-10-13T07:48:35.416Z,11.06
2022-10-13T07:51:12.541Z,11.08
2022-10-13T07:53:41.349Z,11.16
2022-10-13T07:56:12.233Z,11.18
2022-10-13T07:58:41.547Z,11.21
2022-10-13T08:01:09.903Z,11.25
2022-10-13T08:06:24.093Z,11.30
2022-10-13T08:08:50.931Z,11.30
2022-10-13T08:11:18.327Z,11.32
2022-10-13T08:13:52.625Z,11.35
2022-10-13T08:16:20.136Z,11.41
2022-10-13T08:18:47.387Z,11.44
2022-10-13T08:24:09.353Z,11.59
2022-10-13T08:26:36.303Z,11.75
2022-10-13T08:29:20.608Z,11.87
2022-10-13T08:34:16.217Z,12.09
2022-10-13T08:36:43.836Z,12.18
2022-10-13T08:39:11.674Z,12.28
2022-10-13T08:41:46.225Z,12.32
2022-10-13T08:45:10.953Z,12.41
2022-10-13T08:47:30.605Z,12.48
2022-10-13T08:50:03.681Z,12.54
2022-10-13T08:52:49.951Z,12.57
2022-10-13T08:55:37.486Z,12.57
2022-10-13T08:58:15.144Z,12.70
2022-10-13T09:00:42.498Z,12.82
2022-10-13T09:03:26.399Z,12.85
2022-10-13T09:06:28.551Z,13.01
2022-10-13T09:09:06.063Z,13.04
2022-10-13T09:11:37.821Z,13.06
2022-10-13T09:14:23.712Z,13.11
2022-10-13T09:16:52.851Z,13.19
2022-10-13T09:19:30.308Z,13.26
2022-10-13T09:22:14.709Z,13.27
2022-10-13T09:24:41.640Z,13.34
2022-10-13T09:27:16.400Z,13.33
2022-10-13T09:29:45.128Z,13.33
2022-10-13T09:32:24.001Z,13.30
2022-10-13T09:34:53.122Z,13.29
2022-10-13T09:37:25.755Z,13.27
2022-10-13T09:40:21.126Z,13.25
2022-10-13T09:42:53.516Z,13.30
2022-10-13T09:45:23.351Z,13.33
2022-10-13T09:47:55.684Z,13.32
2022-10-13T09:50:32.209Z,13.29
2022-10-13T09:53:34.436Z,13.33
2022-10-13T09:56:25.803Z,13.36
2022-10-13T09:59:10.611Z,13.38
2022-10-13T10:01:43.975Z,13.37
2022-10-13T10:04:18.473Z,13.37
2022-10-13T10:06:46.808Z,13.40
2022-10-13T10:09:25.836Z,13.39
2022-10-13T10:11:55.073Z,13.38
2022-10-13T10:14:32.286Z,13.37
2022-10-13T10:17:13.064Z,13.38
2022-10-13T10:20:02.065Z,13.35
2022-10-13T10:22:40.645Z,13.35
2022-10-13T10:25:27.687Z,13.40
2022-10-13T10:28:34.050Z,13.45
2022-10-13T10:31:34.560Z,13.47
2022-10-13T10:34:30.043Z,13.50
2022-10-13T10:37:21.224Z,13.60
2022-10-13T10:40:16.968Z,13.74
2022-10-13T10:43:04.977Z,13.88
2022-10-13T10:45:38.102Z,14.03
2022-10-13T10:48:33.514Z,14.23
2022-10-13T10:51:01.441Z,14.38
2022-10-13T10:54:21.840Z,14.55
2022-10-13T10:56:55.753Z,14.72
2022-10-13T10:59:40.369Z,14.86
2022-10-13T11:02:07.160Z,15.00
2022-10-13T11:04:50.149Z,14.98
2022-10-13T11:07:22.994Z,15.12
2022-10-13T11:09:50.732Z,15.18
2022-10-13T11:12:21.082Z,15.21
2022-10-13T11:14:54.034Z,15.20
2022-10-13T11:17:39.145Z,15.25
2022-10-13T11:20:18.197Z,15.25
2022-10-13T11:23:00.201Z,15.32
2022-10-13T11:25:40.175Z,15.41
2022-10-13T11:28:22.839Z,15.49
2022-10-13T11:31:17.645Z,15.63
2022-10-13T11:33:45.855Z,15.72
2022-10-13T11:36:42.124Z,15.72
2022-10-13T11:39:28.122Z,15.77
2022-10-13T11:42:36.657Z,15.81
2022-10-13T11:45:26.129Z,15.87
2022-10-13T11:48:24.890Z,15.85
2022-10-13T11:51:13.949Z,15.92
2022-10-13T11:54:21.550Z,16.02
2022-10-13T11:56:55.384Z,16.18
2022-10-13T11:59:29.440Z,16.27
2022-10-13T12:02:00.513Z,16.31
2022-10-13T12:04:28.891Z,16.31
2022-10-13T12:07:01.565Z,16.36
2022-10-13T12:09:31.583Z,16.37
2022-10-13T12:12:21.097Z,16.44
2022-10-13T12:14:52.951Z,16.47
2022-10-13T12:17:33.084Z,16.46
2022-10-13T12:20:04.736Z,16.48
2022-10-13T12:22:31.554Z,16.49
2022-10-13T12:24:59.747Z,16.47
2022-10-13T12:27:28.841Z,16.51
2022-10-13T12:29:55.920Z,16.49
2022-10-13T12:32:27.261Z,16.49
2022-10-13T12:34:54.099Z,16.52
2022-10-13T12:37:33.671Z,16.45
2022-10-13T12:40:01.601Z,16.40
2022-10-13T12:42:34.121Z,16.22
2022-10-13T12:45:02.653Z,16.08
2022-10-13T12:47:49.230Z,16.01
2022-10-13T12:50:30.858Z,15.85
2022-10-13T12:53:19.497Z,15.81
2022-10-13T12:55:56.517Z,15.67
2022-10-13T12:58:27.893Z,15.62
2022-10-13T13:00:57.890Z,15.56
2022-10-13T13:03:28.537Z,15.46
2022-10-13T13:06:24.263Z,15.39
2022-10-13T13:09:25.792Z,15.36
2022-10-13T13:12:12.857Z,15.42
2022-10-13T13:14:42.893Z,15.41
2022-10-13T13:17:38.848Z,15.39
2022-10-13T13:20:27.268Z,15.57
2022-10-13T13:22:55.139Z,15.68
2022-10-13T13:25:22.442Z,15.77
2022-10-13T13:27:49.396Z,15.97
2022-10-13T13:30:20.136Z,16.03
2022-10-13T13:32:47.263Z,16.08
2022-10-13T13:35:14.800Z,16.06
2022-10-13T13:37:51.127Z,16.05
2022-10-13T13:40:24.645Z,16.06
2022-10-13T13:42:52.149Z,16.10
2022-10-13T13:45:25.552Z,16.16
2022-10-13T13:47:53.065Z,16.21
2022-10-13T13:50:31.064Z,16.29
2022-10-13T13:52:59.216Z,16.39
2022-10-13T13:55:28.230Z,16.43
2022-10-13T13:57:55.492Z,16.45
2022-10-13T14:00:23.428Z,16.52
2022-10-13T14:02:51.006Z,16.56
2022-10-13T14:05:17.786Z,16.53
2022-10-13T14:07:44.696Z,16.55
2022-10-13T14:10:11.853Z,16.57
2022-10-13T14:12:39.180Z,16.57
2022-10-13T14:15:07.109Z,16.51
2022-10-13T14:17:33.930Z,16.40
2022-10-13T14:20:00.733Z,16.40
2022-10-13T14:22:27.843Z,16.37
2022-10-13T14:24:54.677Z,16.35
2022-10-13T14:27:21.801Z,16.26
2022-10-13T14:29:48.804Z,16.25
2022-10-13T14:32:15.908Z,16.24
2022-10-13T14:34:42.774Z,16.16
2022-10-13T14:37:09.582Z,16.16
2022-10-13T14:39:36.368Z,16.10
2022-10-13T14:42:03.548Z,16.05
2022-10-13T14:44:30.349Z,16.01
2022-10-13T14:46:57.238Z,15.94
2022-10-13T14:49:24.389Z,15.90
2022-10-13T14:51:51.293Z,15.89
2022-10-13T14:54:18.196Z,15.85
2022-10-13T14:56:45.224Z,15.82
2022-10-13T14:59:13.081Z,15.81
2022-10-13T15:01:41.707Z,15.78
2022-10-13T15:04:09.014Z,15.72
2022-10-13T15:06:39.233Z,15.70
2022-10-13T15:11:36.781Z,15.66
2022-10-13T15:14:03.772Z,15.63
2022-10-13T15:16:35.489Z,15.53
2022-10-13T15:19:04.384Z,15.46
2022-10-13T15:21:31.493Z,15.40
2022-10-13T15:23:58.298Z,15.38
2022-10-13T15:26:25.213Z,15.37
2022-10-13T15:28:54.138Z,15.39
2022-10-13T15:31:22.500Z,15.41
2022-10-13T15:33:52.569Z,15.43
2022-10-13T15:36:22.311Z,15.42
2022-10-13T15:38:49.331Z,15.39
2022-10-13T15:41:16.541Z,15.35
2022-10-13T15:43:43.559Z,15.32
2022-10-13T15:46:21.558Z,15.22
2022-10-13T15:48:53.442Z,15.18
2022-10-13T15:51:24.548Z,15.10
2022-10-13T15:53:51.463Z,15.05
2022-10-13T15:56:18.629Z,14.95
2022-10-13T15:58:45.994Z,14.90
2022-10-13T16:01:14.667Z,14.82
2022-10-13T16:03:42.478Z,14.80
2022-10-13T16:06:12.806Z,14.74
2022-10-13T16:08:42.618Z,14.72
2022-10-13T16:11:12.297Z,14.69
2022-10-13T16:13:40.206Z,14.64
2022-10-13T16:16:08.052Z,14.61
2022-10-13T16:18:37.662Z,14.56
2022-10-13T16:21:26.057Z,14.50
2022-10-13T16:23:53.019Z,14.42
2022-10-13T16:26:20.127Z,14.39
2022-10-13T16:28:47.306Z,14.37
2022-10-13T16:31:16.624Z,14.35
2022-10-13T16:33:45.471Z,14.33
2022-10-13T16:36:16.499Z,14.27
2022-10-13T16:38:48.048Z,14.24
2022-10-13T16:41:18.439Z,14.16
2022-10-13T16:43:46.783Z,14.09
2022-10-13T16:46:17.338Z,13.98
2022-10-13T16:48:46.369Z,13.89
2022-10-13T16:51:19.957Z,13.77
2022-10-13T16:53:58.711Z,13.67
2022-10-13T16:56:29.118Z,13.56
2022-10-13T16:58:58.487Z,13.45
2022-10-13T17:01:26.351Z,13.38
2022-10-13T17:03:54.329Z,13.28
2022-10-13T17:06:24.547Z,13.21
2022-10-13T17:08:51.586Z,13.13
2022-10-13T17:11:26.016Z,13.03
2022-10-13T17:13:53.472Z,12.97
2022-10-13T17:16:21.129Z,12.87
2022-10-13T17:18:48.006Z,12.80
2022-10-13T17:21:17.385Z,12.73
2022-10-13T17:23:48.544Z,12.65
2022-10-13T17:26:18.131Z,12.61
2022-10-13T17:28:46.008Z,12.56
2022-10-13T17:31:19.965Z,12.50
2022-10-13T17:33:47.813Z,12.50
2022-10-13T17:36:22.300Z,12.50
2022-10-13T17:38:50.229Z,12.52
2022-10-13T17:41:18.624Z,12.53
2022-10-13T17:43:45.634Z,12.55
2022-10-13T17:46:40.822Z,12.54
2022-10-13T17:49:11.882Z,12.56
2022-10-13T17:51:40.634Z,12.59
2022-10-13T17:54:14.462Z,12.63
2022-10-13T17:56:43.276Z,12.66
2022-10-13T17:59:10.477Z,12.72
2022-10-13T18:01:37.954Z,12.76
2022-10-13T18:04:11.322Z,12.81
2022-10-13T18:06:40.781Z,12.84
2022-10-13T18:09:14.656Z,12.88
2022-10-13T18:11:49.432Z,12.93
2022-10-13T18:14:18.703Z,12.96
2022-10-13T18:16:45.865Z,12.98
2022-10-13T18:19:13.483Z,12.99
2022-10-13T18:21:40.498Z,13.03
2022-10-13T18:24:09.711Z,13.03
2022-10-13T18:26:36.578Z,13.06
2022-10-13T18:29:06.292Z,13.07
2022-10-13T18:31:36.104Z,13.11
2022-10-13T18:34:08.002Z,13.10
2022-10-13T18:36:46.712Z,13.11
2022-10-13T18:39:17.158Z,13.11
2022-10-13T18:41:44.239Z,13.12
2022-10-13T18:44:11.099Z,13.10
2022-10-13T18:46:39.719Z,13.05
2022-10-13T18:49:09.303Z,12.95
2022-10-13T18:51:36.689Z,12.87
2022-10-13T18:54:04.661Z,12.78
2022-10-13T18:56:34.096Z,12.70
2022-10-13T18:59:03.354Z,12.63
2022-10-13T19:01:34.406Z,12.55
2022-10-13T19:04:01.441Z,12.49
2022-10-13T19:06:32.012Z,12.40
2022-10-13T19:09:03.062Z,12.34
2022-10-13T19:11:31.254Z,12.31
2022-10-13T19:13:59.706Z,12.25
2022-10-13T19:16:29.531Z,12.20
2022-10-13T19:18:56.431Z,12.17
2022-10-13T19:21:24.556Z,12.14
2022-10-13T19:23:52.097Z,12.06
2022-10-13T19:26:31.605Z,12.01
2022-10-13T19:29:12.009Z,11.98
2022-10-13T19:31:41.567Z,11.95
2022-10-13T19:34:10.732Z,11.90
2022-10-13T19:36:45.029Z,11.89
2022-10-13T19:39:18.690Z,11.85
2022-10-13T19:41:46.910Z,11.80
2022-10-13T19:44:15.056Z,11.78
2022-10-13T19:46:43.818Z,11.73
2022-10-13T19:49:13.312Z,11.70
2022-10-13T19:51:41.916Z,11.66
2022-10-13T19:54:09.812Z,11.64
2022-10-13T19:56:36.976Z,11.59
2022-10-13T19:59:04.686Z,11.58
2022-10-13T20:01:33.138Z,11.55
2022-10-13T20:04:00.301Z,11.50
2022-10-13T20:06:27.198Z,11.47
2022-10-13T20:08:54.014Z,11.43
2022-10-13T20:11:24.147Z,11.41
2022-10-13T20:13:52.637Z,11.39
2022-10-13T20:16:24.644Z,11.34
2022-10-13T20:18:58.147Z,11.30
2022-10-13T20:21:27.052Z,11.28
2022-10-13T20:23:55.068Z,11.25
2022-10-13T20:26:22.599Z,11.24
2022-10-13T20:28:51.245Z,11.21
2022-10-13T20:31:21.812Z,11.19
2022-10-13T20:33:49.869Z,11.18
2022-10-13T20:36:19.775Z,11.16
2022-10-13T20:38:49.509Z,11.15
2022-10-13T20:41:21.067Z,11.12
2022-10-13T20:43:49.212Z,11.09
2022-10-13T20:46:18.242Z,11.08
2022-10-13T20:49:09.206Z,11.07
2022-10-13T20:51:32.161Z,11.06
2022-10-13T20:53:58.957Z,11.05
2022-10-13T20:56:27.007Z,11.04
2022-10-13T20:58:54.404Z,11.02
2022-10-13T21:01:22.914Z,11.02
2022-10-13T21:03:54.476Z,11.02
2022-10-13T21:06:23.818Z,11.01
2022-10-13T21:08:51.705Z,11.01
2022-10-13T21:11:21.694Z,11.00
2022-10-13T21:13:49.438Z,11.00
2022-10-13T21:16:27.423Z,10.95
2022-10-13T21:18:56.249Z,10.94
2022-10-13T21:21:26.706Z,10.91
2022-10-13T21:23:56.545Z,10.88
2022-10-13T21:26:25.746Z,10.86
2022-10-13T21:28:52.935Z,10.83
2022-10-13T21:31:22.436Z,10.81
2022-10-13T21:33:50.280Z,10.78
2022-10-13T21:36:29.638Z,10.69
2022-10-13T21:39:00.135Z,10.74
2022-10-13T21:41:28.042Z,10.75
2022-10-13T21:43:55.457Z,10.73
2022-10-13T21:46:29.938Z,10.76
2022-10-13T21:49:00.951Z,10.73
2022-10-13T21:51:31.853Z,10.72
2022-10-13T21:54:03.320Z,10.72
2022-10-13T21:56:31.824Z,10.70
2022-10-13T21:58:59.637Z,10.67
2022-10-13T22:01:26.812Z,10.69
2022-10-13T22:03:57.856Z,10.68
2022-10-13T22:06:25.566Z,10.65
2022-10-13T22:08:55.223Z,10.65
2022-10-13T22:11:26.588Z,10.64
2022-10-13T22:13:53.886Z,10.64
2022-10-13T22:16:24.612Z,10.63
2022-10-13T22:18:53.965Z,10.63
2022-10-13T22:21:28.322Z,10.61
2022-10-13T22:24:01.113Z,10.60
2022-10-13T22:26:31.632Z,10.60
2022-10-13T22:29:01.170Z,10.58
2022-10-13T22:31:28.929Z,10.58
2022-10-13T22:33:55.737Z,10.56
2022-10-13T22:36:25.189Z,10.55
2022-10-13T22:38:55.468Z,10.55
2022-10-13T22:41:23.402Z,10.56
2022-10-13T22:43:53.064Z,10.58
2022-10-13T22:46:26.859Z,10.53
2022-10-13T22:48:54.309Z,10.54
2022-10-13T22:51:24.207Z,10.56
2022-10-13T22:53:51.594Z,10.54
2022-10-13T22:56:31.435Z,10.53
2022-10-13T22:59:02.170Z,10.56
2022-10-13T23:01:29.607Z,10.55
2022-10-13T23:03:58.673Z,10.57
2022-10-13T23:06:31.628Z,10.57
2022-10-13T23:09:05.329Z,10.54
2022-10-13T23:11:32.369Z,10.55
2022-10-13T23:13:59.273Z,10.59
2022-10-13T23:16:27.364Z,10.56
2022-10-13T23:18:54.691Z,10.61
2022-10-13T23:21:24.615Z,10.60
2022-10-13T23:24:05.200Z,10.59
2022-10-13T23:26:34.468Z,10.62
2022-10-13T23:29:01.928Z,10.64
2022-10-13T23:31:29.340Z,10.68
2022-10-13T23:33:56.409Z,10.71
2022-10-13T23:36:28.325Z,10.78
2022-10-13T23:38:56.901Z,10.78
2022-10-13T23:41:24.739Z,10.84
2022-10-13T23:43:51.552Z,10.87
2022-10-13T23:46:18.788Z,10.84
2022-10-13T23:48:46.021Z,10.84
2022-10-13T23:51:16.675Z,10.84
2022-10-13T23:53:44.232Z,10.85
2022-10-13T23:56:13.145Z,10.88
2022-10-13T23:58:43.035Z,10.86
